createdAt,value
2023-03-13T00:01:57.566Z,27.50
2023-03-13T00:04:27.301Z,28.90
2023-03-13T00:06:55.633Z,28.03
2023-03-13T00:09:24.123Z,31.83
2023-03-13T00:11:52.456Z,26.80
2023-03-13T00:14:20.734Z,35.53
2023-03-13T00:16:49.214Z,41.63
2023-03-13T00:19:17.543Z,31.17
2023-03-13T00:21:47.215Z,34.30
2023-03-13T00:24:15.466Z,28.30
2023-03-13T00:26:43.769Z,30.83
2023-03-13T00:29:12.125Z,34.07
2023-03-13T00:31:40.452Z,28.77
2023-03-13T00:34:08.759Z,27.77
2023-03-13T00:36:37.754Z,30.40
2023-03-13T00:39:08.220Z,31.53
2023-03-13T00:41:37.779Z,28.70
2023-03-13T00:44:06.269Z,33.93
2023-03-13T00:46:34.732Z,33.10
2023-03-13T00:49:03.385Z,29.43
2023-03-13T00:51:32.035Z,35.73
2023-03-13T00:54:01.542Z,40.53
2023-03-13T00:56:31.520Z,37.90
2023-03-13T00:59:02.434Z,33.67
2023-03-13T01:01:33.463Z,34.03
2023-03-13T01:04:03.502Z,35.13
2023-03-13T01:06:34.105Z,28.73
2023-03-13T01:09:03.896Z,29.73
2023-03-13T01:11:36.212Z,32.20
2023-03-13T01:14:06.340Z,34.27
2023-03-13T01:16:36.447Z,38.37
2023-03-13T01:19:07.159Z,35.90
2023-03-13T01:21:35.969Z,30.47
2023-03-13T01:24:04.618Z,30.20
2023-03-13T01:26:34.514Z,35.73
2023-03-13T01:29:02.822Z,32.03
2023-03-13T01:31:33.124Z,30.20
2023-03-13T01:34:02.648Z,34.03
2023-03-13T01:36:31.215Z,32.43
2023-03-13T01:39:01.578Z,33.93
2023-03-13T01:41:31.220Z,35.53
2023-03-13T01:44:01.387Z,29.87
2023-03-13T01:46:30.370Z,30.97
2023-03-13T01:49:04.610Z,33.40
2023-03-13T01:51:36.347Z,29.07
2023-03-13T01:54:09.022Z,34.57
2023-03-13T01:56:42.341Z,31.87
2023-03-13T01:59:16.317Z,31.77
2023-03-13T02:01:47.593Z,34.73
2023-03-13T02:04:17.627Z,34.13
2023-03-13T02:06:49.135Z,34.07
2023-03-13T02:09:22.763Z,37.33
2023-03-13T02:11:56.125Z,34.13
2023-03-13T02:14:29.170Z,32.33
2023-03-13T02:16:57.676Z,33.70
2023-03-13T02:19:32.644Z,37.28
2023-03-13T02:22:08.543Z,29.50
2023-03-13T02:24:43.416Z,32.03
2023-03-13T02:27:13.407Z,30.30
2023-03-13T02:29:42.833Z,31.83
2023-03-13T02:32:11.303Z,35.35
2023-03-13T02:34:42.251Z,31.43
2023-03-13T02:37:13.044Z,37.40
2023-03-13T02:39:45.908Z,31.23
2023-03-13T02:42:17.147Z,33.67
2023-03-13T02:44:48.320Z,34.17
2023-03-13T02:47:19.772Z,31.87
2023-03-13T02:49:48.077Z,34.33
2023-03-13T02:52:22.572Z,37.27
2023-03-13T02:54:54.153Z,33.07
2023-03-13T02:57:23.859Z,37.43
2023-03-13T02:59:52.166Z,38.83
2023-03-13T03:02:20.517Z,31.50
2023-03-13T03:04:48.902Z,33.03
2023-03-13T03:07:17.210Z,35.73
2023-03-13T03:09:45.560Z,37.17
2023-03-13T03:12:13.895Z,33.70
2023-03-13T03:14:43.670Z,39.33
2023-03-13T03:17:11.994Z,42.47
2023-03-13T03:19:40.274Z,39.83
2023-03-13T03:22:08.650Z,37.50
2023-03-13T03:24:37.001Z,34.70
2023-03-13T03:27:05.574Z,36.77
2023-03-13T03:29:33.858Z,37.70
2023-03-13T03:32:03.644Z,38.07
2023-03-13T03:34:32.131Z,41.47
2023-03-13T03:37:00.589Z,46.13
2023-03-13T03:39:29.027Z,47.47
2023-03-13T03:41:57.339Z,49.03
2023-03-13T03:44:25.770Z,54.37
2023-03-13T03:46:54.164Z,59.27
2023-03-13T03:49:23.921Z,54.80
2023-03-13T03:51:52.354Z,48.57
2023-03-13T03:54:20.685Z,49.40
2023-03-13T03:56:49.066Z,37.87
2023-03-13T03:59:17.458Z,40.37
2023-03-13T04:01:45.808Z,41.33
2023-03-13T04:04:14.175Z,39.83
2023-03-13T04:06:43.839Z,42.40
2023-03-13T04:09:12.264Z,38.07
2023-03-13T04:11:40.546Z,35.20
2023-03-13T04:14:08.860Z,35.80
2023-03-13T04:16:37.593Z,32.47
2023-03-13T04:19:05.979Z,33.63
2023-03-13T04:21:34.308Z,33.73
2023-03-13T04:24:04.004Z,34.17
2023-03-13T04:26:32.308Z,38.17
2023-03-13T04:29:00.644Z,31.67
2023-03-13T04:31:28.911Z,34.97
2023-03-13T04:33:57.218Z,37.83
2023-03-13T04:36:25.808Z,36.00
2023-03-13T04:38:54.170Z,29.63
2023-03-13T04:41:23.888Z,41.97
2023-03-13T04:43:52.179Z,34.00
2023-03-13T04:46:20.508Z,38.23
2023-03-13T04:48:48.895Z,37.70
2023-03-13T04:51:17.165Z,30.67
2023-03-13T04:53:45.518Z,36.20
2023-03-13T04:56:32.430Z,37.53
2023-03-13T04:59:12.175Z,36.80
2023-03-13T05:01:40.508Z,40.47
2023-03-13T05:04:09.507Z,47.40
2023-03-13T05:06:37.907Z,37.27
2023-03-13T05:09:07.058Z,29.93
2023-03-13T05:11:35.784Z,37.53
2023-03-13T05:14:04.585Z,31.67
2023-03-13T05:16:34.489Z,34.07
2023-03-13T05:19:02.795Z,34.83
2023-03-13T05:21:31.105Z,46.40
2023-03-13T05:23:59.470Z,37.40
2023-03-13T05:26:27.720Z,40.23
2023-03-13T05:28:56.031Z,41.63
2023-03-13T05:31:24.485Z,37.87
2023-03-13T05:33:54.279Z,37.67
2023-03-13T05:36:22.555Z,34.70
2023-03-13T05:38:50.909Z,43.47
2023-03-13T05:41:19.301Z,38.63
2023-03-13T05:43:47.525Z,42.13
2023-03-13T05:46:15.866Z,43.13
2023-03-13T05:48:45.642Z,44.27
2023-03-13T05:51:15.318Z,37.93
2023-03-13T05:53:43.974Z,40.67
2023-03-13T05:56:12.631Z,36.63
2023-03-13T05:58:40.910Z,38.10
2023-03-13T06:01:10.180Z,35.57
2023-03-13T06:03:38.777Z,47.10
2023-03-13T06:06:07.686Z,39.37
2023-03-13T06:08:37.345Z,38.53
2023-03-13T06:11:05.883Z,38.87
2023-03-13T06:13:34.198Z,44.10
2023-03-13T06:16:02.691Z,41.13
2023-03-13T06:18:31.067Z,38.47
2023-03-13T06:21:01.138Z,40.17
2023-03-13T06:23:29.977Z,42.10
2023-03-13T06:25:59.716Z,36.43
2023-03-13T06:28:28.049Z,40.50
2023-03-13T06:30:56.330Z,35.80
2023-03-13T06:33:24.745Z,30.87
2023-03-13T06:35:56.604Z,30.67
2023-03-13T06:38:25.731Z,33.53
2023-03-13T06:40:54.154Z,34.90
2023-03-13T06:43:24.191Z,28.70
2023-03-13T06:45:52.634Z,31.43
2023-03-13T06:48:23.081Z,34.33
2023-03-13T06:50:51.752Z,37.27
2023-03-13T06:53:21.713Z,29.47
2023-03-13T06:55:50.210Z,26.07
2023-03-13T06:58:31.761Z,28.03
2023-03-13T07:01:07.000Z,28.93
2023-03-13T07:03:35.534Z,26.83
2023-03-13T07:06:04.829Z,23.03
2023-03-13T07:08:33.774Z,25.53
2023-03-13T07:11:03.815Z,22.40
2023-03-13T07:13:32.759Z,25.47
2023-03-13T07:16:04.469Z,21.37
2023-03-13T07:18:33.381Z,22.27
2023-03-13T07:21:05.100Z,20.37
2023-03-13T07:23:35.602Z,24.13
2023-03-13T07:26:05.895Z,22.23
2023-03-13T07:28:37.545Z,26.00
2023-03-13T07:31:09.239Z,23.73
2023-03-13T07:33:37.543Z,21.20
2023-03-13T07:36:06.739Z,22.30
2023-03-13T07:38:35.361Z,21.70
2023-03-13T07:41:04.285Z,19.00
2023-03-13T07:43:32.900Z,23.40
2023-03-13T07:46:02.607Z,15.90
2023-03-13T07:48:33.905Z,16.83
2023-03-13T07:51:03.295Z,16.50
2023-03-13T07:53:32.049Z,18.93
2023-03-13T07:56:02.194Z,16.03
2023-03-13T07:58:32.279Z,16.73
2023-03-13T08:01:00.942Z,18.00
2023-03-13T08:03:31.236Z,16.53
2023-03-13T08:06:00.893Z,19.23
2023-03-13T08:08:29.838Z,18.97
2023-03-13T08:11:02.474Z,18.37
2023-03-13T08:13:31.282Z,17.87
2023-03-13T08:16:07.860Z,18.20
2023-03-13T08:18:39.530Z,18.33
2023-03-13T08:21:09.679Z,16.17
2023-03-13T08:23:38.364Z,11.83
2023-03-13T08:26:08.423Z,14.73
2023-03-13T08:28:37.734Z,16.20
2023-03-13T08:31:10.662Z,21.17
2023-03-13T08:33:41.119Z,17.43
2023-03-13T08:36:18.432Z,16.90
2023-03-13T08:38:48.166Z,18.93
2023-03-13T08:41:17.895Z,13.13
2023-03-13T08:43:47.013Z,14.40
2023-03-13T08:46:18.378Z,16.23
2023-03-13T08:48:51.433Z,17.97
2023-03-13T08:51:21.199Z,13.10
2023-03-13T08:53:52.982Z,14.00
2023-03-13T08:56:23.248Z,12.40
2023-03-13T08:58:52.348Z,17.87
2023-03-13T09:01:21.698Z,16.53
2023-03-13T09:03:51.495Z,13.60
2023-03-13T09:06:19.883Z,13.73
2023-03-13T09:08:48.603Z,13.30
2023-03-13T09:11:19.297Z,12.40
2023-03-13T09:13:49.543Z,11.30
2023-03-13T09:16:20.148Z,15.20
2023-03-13T09:18:48.780Z,15.47
2023-03-13T09:21:20.935Z,12.80
2023-03-13T09:23:49.633Z,13.90
2023-03-13T09:26:21.002Z,10.20
2023-03-13T09:28:51.090Z,12.83
2023-03-13T09:31:22.288Z,11.13
2023-03-13T09:33:51.513Z,12.53
2023-03-13T09:36:22.883Z,12.53
2023-03-13T09:38:51.864Z,14.17
2023-03-13T09:41:27.177Z,11.33
2023-03-13T09:44:03.346Z,11.33
2023-03-13T09:46:39.275Z,10.03
2023-03-13T09:49:17.306Z,8.77
2023-03-13T09:51:54.712Z,9.73
2023-03-13T09:54:27.039Z,11.77
2023-03-13T09:56:58.546Z,8.10
2023-03-13T09:59:33.569Z,8.97
2023-03-13T10:02:05.425Z,6.07
2023-03-13T10:04:41.743Z,7.43
2023-03-13T10:07:15.025Z,9.63
2023-03-13T10:09:44.983Z,9.97
2023-03-13T10:12:20.786Z,7.73
2023-03-13T10:15:13.673Z,7.67
2023-03-13T10:17:42.059Z,6.20
2023-03-13T10:20:22.386Z,6.53
2023-03-13T10:22:55.921Z,7.63
2023-03-13T10:25:31.283Z,8.47
2023-03-13T10:28:00.159Z,5.90
2023-03-13T10:30:31.359Z,5.40
2023-03-13T10:33:02.394Z,8.27
2023-03-13T10:35:36.105Z,4.87
2023-03-13T10:38:08.201Z,5.90
2023-03-13T10:40:36.893Z,10.40
2023-03-13T10:43:07.122Z,7.00
2023-03-13T10:45:39.241Z,7.33
2023-03-13T10:48:14.355Z,4.10
2023-03-13T10:50:46.074Z,6.83
2023-03-13T10:53:33.198Z,7.63
2023-03-13T10:56:10.553Z,5.07
2023-03-13T10:58:43.956Z,7.53
2023-03-13T11:01:18.869Z,5.90
2023-03-13T11:03:48.422Z,8.43
2023-03-13T11:06:29.148Z,4.90
2023-03-13T11:09:05.005Z,8.83
2023-03-13T11:11:44.252Z,7.17
2023-03-13T11:14:17.161Z,5.10
2023-03-13T11:16:50.435Z,4.87
2023-03-13T11:19:49.024Z,9.63
2023-03-13T11:22:30.420Z,9.30
2023-03-13T11:25:06.227Z,7.83
2023-03-13T11:27:40.029Z,10.17
2023-03-13T11:30:22.898Z,6.30
2023-03-13T11:32:56.066Z,5.20
2023-03-13T11:35:38.881Z,4.60
2023-03-13T11:38:11.081Z,4.53
2023-03-13T11:40:47.669Z,5.80
2023-03-13T11:43:27.996Z,4.57
2023-03-13T11:46:15.960Z,7.30
2023-03-13T11:49:16.865Z,6.07
2023-03-13T11:51:59.485Z,5.57
2023-03-13T11:54:59.486Z,4.87
2023-03-13T11:57:32.399Z,5.70
2023-03-13T12:00:26.026Z,4.77
2023-03-13T12:02:59.698Z,4.90
2023-03-13T12:05:31.330Z,7.73
2023-03-13T12:08:05.867Z,7.20
2023-03-13T12:10:40.120Z,4.57
2023-03-13T12:13:18.457Z,5.10
2023-03-13T12:15:50.427Z,4.27
2023-03-13T12:18:24.257Z,4.80
2023-03-13T12:20:57.953Z,4.47
2023-03-13T12:23:32.843Z,4.03
2023-03-13T12:26:07.674Z,4.17
2023-03-13T12:28:43.676Z,12.60
2023-03-13T12:31:23.278Z,8.10
2023-03-13T12:33:58.821Z,5.47
2023-03-13T12:36:31.069Z,12.20
2023-03-13T12:39:11.548Z,5.50
2023-03-13T12:41:43.443Z,4.37
2023-03-13T12:44:18.641Z,3.03
2023-03-13T12:46:48.933Z,7.07
2023-03-13T12:49:43.080Z,22.63
2023-03-13T12:52:49.058Z,6.00
2023-03-13T12:55:52.649Z,9.03
2023-03-13T12:58:40.833Z,4.80
2023-03-13T13:01:18.377Z,5.50
2023-03-13T13:03:54.158Z,4.67
2023-03-13T13:06:22.693Z,3.93
2023-03-13T13:09:07.606Z,6.40
2023-03-13T13:11:50.825Z,5.80
2023-03-13T13:14:57.697Z,3.25
2023-03-13T13:17:51.214Z,5.85
2023-03-13T13:20:39.466Z,6.50
2023-03-13T13:23:39.409Z,7.20
2023-03-13T13:26:47.361Z,4.57
2023-03-13T13:29:58.121Z,4.97
2023-03-13T13:32:39.109Z,6.18
2023-03-13T13:35:37.957Z,5.25
2023-03-13T13:38:39.840Z,4.05
2023-03-13T13:41:36.187Z,3.28
2023-03-13T13:44:24.833Z,67.30
2023-03-13T13:46:55.039Z,5.90
2023-03-13T13:49:24.701Z,3.05
2023-03-13T13:52:40.657Z,3.20
2023-03-13T13:55:43.366Z,4.93
2023-03-13T13:58:19.406Z,4.20
2023-03-13T14:00:54.006Z,4.97
2023-03-13T14:03:24.751Z,3.55
2023-03-13T14:05:56.858Z,5.68
2023-03-13T14:08:31.169Z,7.32
2023-03-13T14:11:22.834Z,3.25
2023-03-13T14:14:14.881Z,3.40
2023-03-13T14:16:47.669Z,6.28
2023-03-13T14:19:29.443Z,6.15
2023-03-13T14:22:02.620Z,5.50
2023-03-13T14:24:31.266Z,4.70
2023-03-13T14:27:01.327Z,3.38
2023-03-13T14:29:29.689Z,4.93
2023-03-13T14:32:00.798Z,3.95
2023-03-13T14:34:32.651Z,6.63
2023-03-13T14:37:17.146Z,4.18
2023-03-13T14:39:48.840Z,5.53
2023-03-13T14:42:20.130Z,3.53
2023-03-13T14:44:50.415Z,6.18
2023-03-13T14:47:25.273Z,4.40
2023-03-13T14:50:00.043Z,6.63
2023-03-13T14:52:29.694Z,3.83
2023-03-13T14:55:02.242Z,4.75
2023-03-13T14:57:32.829Z,5.10
2023-03-13T15:00:33.059Z,8.38
2023-03-13T15:03:25.642Z,6.43
2023-03-13T15:06:22.228Z,6.07
2023-03-13T15:09:08.736Z,3.80
2023-03-13T15:11:39.541Z,4.15
2023-03-13T15:14:37.681Z,6.47
2023-03-13T15:17:15.864Z,6.68
2023-03-13T15:19:44.635Z,4.70
2023-03-13T15:22:15.351Z,8.00
2023-03-13T15:24:56.142Z,4.80
2023-03-13T15:27:32.725Z,6.80
2023-03-13T15:30:04.808Z,3.33
2023-03-13T15:32:37.193Z,6.30
2023-03-13T15:35:22.527Z,3.67
2023-03-13T15:37:50.849Z,6.13
2023-03-13T15:40:20.060Z,5.43
2023-03-13T15:42:48.388Z,5.47
2023-03-13T15:45:18.367Z,4.43
2023-03-13T15:47:47.588Z,7.63
2023-03-13T15:50:18.933Z,6.07
2023-03-13T15:52:47.469Z,4.77
2023-03-13T15:55:16.372Z,6.53
2023-03-13T15:57:48.156Z,5.10
2023-03-13T16:00:21.728Z,6.77
2023-03-13T16:02:50.051Z,4.70
2023-03-13T16:05:18.940Z,10.83
2023-03-13T16:07:47.429Z,10.90
2023-03-13T16:10:22.591Z,15.60
2023-03-13T16:12:52.956Z,9.33
2023-03-13T16:15:22.699Z,7.73
2023-03-13T16:17:50.972Z,7.80
2023-03-13T16:20:21.016Z,6.70
2023-03-13T16:22:50.280Z,5.90
2023-03-13T16:25:20.226Z,6.83
2023-03-13T16:27:48.532Z,8.93
2023-03-13T16:30:19.936Z,8.00
2023-03-13T16:32:49.944Z,5.63
2023-03-13T16:35:18.498Z,6.60
2023-03-13T16:37:46.864Z,6.47
2023-03-13T16:40:20.679Z,12.17
2023-03-13T16:42:49.130Z,8.97
2023-03-13T16:45:17.496Z,16.60
2023-03-13T16:47:46.469Z,10.67
2023-03-13T16:50:23.825Z,8.30
2023-03-13T16:52:52.664Z,13.80
2023-03-13T16:55:21.880Z,10.77
2023-03-13T16:57:50.178Z,12.67
2023-03-13T17:00:20.748Z,11.80
2023-03-13T17:02:49.486Z,8.67
2023-03-13T17:05:19.341Z,10.80
2023-03-13T17:07:50.290Z,9.43
2023-03-13T17:10:21.894Z,13.37
2023-03-13T17:12:50.729Z,10.40
2023-03-13T17:15:20.108Z,8.87
2023-03-13T17:17:52.037Z,12.77
2023-03-13T17:20:24.037Z,8.93
2023-03-13T17:22:53.231Z,10.93
2023-03-13T17:25:21.590Z,9.10
2023-03-13T17:27:49.938Z,8.77
2023-03-13T17:30:21.745Z,17.73
2023-03-13T17:32:50.909Z,17.00
2023-03-13T17:35:21.868Z,11.17
2023-03-13T17:37:50.617Z,13.23
2023-03-13T17:40:21.312Z,10.07
2023-03-13T17:42:50.119Z,11.03
2023-03-13T17:45:19.055Z,10.63
2023-03-13T17:47:49.255Z,13.17
2023-03-13T17:50:20.406Z,12.13
2023-03-13T17:52:50.179Z,13.97
2023-03-13T17:55:18.895Z,11.77
2023-03-13T17:57:48.440Z,16.73
2023-03-13T18:00:22.291Z,19.80
2023-03-13T18:02:51.186Z,16.83
2023-03-13T18:05:19.637Z,17.30
2023-03-13T18:07:49.881Z,21.40
2023-03-13T18:10:20.525Z,25.63
2023-03-13T18:12:49.107Z,18.57
2023-03-13T18:15:17.492Z,16.23
2023-03-13T18:17:46.061Z,21.83
2023-03-13T18:20:19.458Z,16.63
2023-03-13T18:22:49.184Z,10.13
2023-03-13T18:25:17.839Z,14.93
2023-03-13T18:27:46.290Z,11.27
2023-03-13T18:30:17.753Z,9.90
2023-03-13T18:32:46.996Z,12.73
2023-03-13T18:35:16.147Z,14.03
2023-03-13T18:37:46.404Z,17.77
2023-03-13T18:40:20.517Z,14.43
2023-03-13T18:42:48.957Z,17.10
2023-03-13T18:45:18.416Z,11.07
2023-03-13T18:47:48.328Z,14.97
2023-03-13T18:50:25.228Z,12.63
2023-03-13T18:52:55.415Z,14.20
2023-03-13T18:55:26.676Z,17.07
2023-03-13T18:57:55.135Z,15.00
2023-03-13T19:00:25.555Z,15.17
2023-03-13T19:02:54.120Z,20.10
2023-03-13T19:05:22.959Z,21.30
2023-03-13T19:07:51.552Z,21.03
2023-03-13T19:10:24.218Z,13.20
2023-03-13T19:12:55.495Z,20.83
2023-03-13T19:15:25.808Z,21.47
2023-03-13T19:17:56.278Z,18.97
2023-03-13T19:20:25.394Z,20.87
2023-03-13T19:22:55.231Z,24.87
2023-03-13T19:25:24.896Z,14.97
2023-03-13T19:27:54.620Z,16.67
2023-03-13T19:30:24.298Z,19.27
2023-03-13T19:32:53.389Z,20.90
2023-03-13T19:35:22.261Z,19.40
2023-03-13T19:37:51.123Z,23.17
2023-03-13T19:40:22.547Z,19.93
2023-03-13T19:42:50.847Z,15.57
2023-03-13T19:45:22.082Z,14.63
2023-03-13T19:47:50.564Z,19.23
2023-03-13T19:50:21.667Z,34.43
2023-03-13T19:52:50.352Z,20.17
2023-03-13T19:55:18.672Z,23.07
2023-03-13T19:57:47.055Z,20.47
2023-03-13T20:00:22.381Z,20.27
2023-03-13T20:02:52.366Z,27.80
2023-03-13T20:05:20.714Z,20.27
2023-03-13T20:07:49.138Z,17.00
2023-03-13T20:10:17.924Z,18.90
2023-03-13T20:12:46.247Z,17.43
2023-03-13T20:15:14.896Z,15.90
2023-03-13T20:17:44.731Z,20.93
2023-03-13T20:20:14.002Z,17.13
2023-03-13T20:22:42.386Z,14.80
2023-03-13T20:25:11.674Z,22.30
2023-03-13T20:27:40.347Z,26.67
2023-03-13T20:30:09.975Z,14.20
2023-03-13T20:32:46.232Z,23.03
2023-03-13T20:35:26.900Z,23.70
2023-03-13T20:37:57.468Z,17.53
2023-03-13T20:40:25.756Z,21.80
2023-03-13T20:42:54.038Z,19.10
2023-03-13T20:45:22.306Z,14.03
2023-03-13T20:47:50.675Z,15.47
2023-03-13T20:50:19.818Z,15.87
2023-03-13T20:52:49.890Z,17.70
2023-03-13T20:55:18.800Z,19.43
2023-03-13T20:57:47.166Z,16.73
2023-03-13T21:00:16.143Z,17.33
2023-03-13T21:02:44.421Z,15.57
2023-03-13T21:05:12.699Z,15.93
2023-03-13T21:07:41.051Z,18.03
2023-03-13T21:10:12.306Z,16.93
2023-03-13T21:12:40.652Z,15.70
2023-03-13T21:15:10.375Z,14.50
2023-03-13T21:17:39.417Z,14.57
2023-03-13T21:20:11.718Z,16.67
2023-03-13T21:22:40.429Z,19.17
2023-03-13T21:25:11.539Z,16.47
2023-03-13T21:27:40.360Z,23.33
2023-03-13T21:30:11.284Z,34.30
2023-03-13T21:32:40.634Z,23.57
2023-03-13T21:35:10.335Z,31.30
2023-03-13T21:37:38.722Z,26.63
2023-03-13T21:40:09.698Z,24.53
2023-03-13T21:42:39.548Z,22.60
2023-03-13T21:45:09.298Z,22.10
2023-03-13T21:47:37.832Z,26.60
2023-03-13T21:50:08.166Z,28.70
2023-03-13T21:52:40.809Z,23.97
2023-03-13T21:55:11.974Z,28.77
2023-03-13T21:57:42.005Z,26.17
2023-03-13T22:00:14.026Z,25.07
2023-03-13T22:02:43.305Z,29.20
2023-03-13T22:05:11.967Z,28.30
2023-03-13T22:07:40.393Z,18.47
2023-03-13T22:10:09.460Z,26.23
2023-03-13T22:12:38.489Z,18.83
2023-03-13T22:15:10.718Z,21.13
2023-03-13T22:17:39.035Z,20.63
2023-03-13T22:20:10.094Z,20.40
2023-03-13T22:22:38.351Z,20.93
2023-03-13T22:25:07.877Z,12.90
2023-03-13T22:27:36.431Z,15.27
2023-03-13T22:30:05.214Z,13.50
2023-03-13T22:32:35.357Z,14.40
2023-03-13T22:35:04.059Z,18.27
2023-03-13T22:37:34.386Z,16.77
2023-03-13T22:40:02.967Z,14.70
2023-03-13T22:42:31.270Z,18.73
2023-03-13T22:44:59.542Z,17.03
2023-03-13T22:47:31.119Z,14.60
2023-03-13T22:50:01.094Z,18.03
2023-03-13T22:52:31.059Z,11.87
2023-03-13T22:55:00.442Z,14.70
2023-03-13T22:57:29.506Z,15.65
2023-03-13T22:59:59.203Z,13.43
2023-03-13T23:02:28.110Z,15.67
2023-03-13T23:04:58.588Z,12.17
2023-03-13T23:07:29.663Z,17.47
2023-03-13T23:10:00.451Z,15.83
2023-03-13T23:12:30.902Z,13.93
2023-03-13T23:15:00.186Z,15.30
2023-03-13T23:17:30.973Z,15.23
2023-03-13T23:20:01.179Z,12.73
2023-03-13T23:22:33.005Z,10.27
2023-03-13T23:25:01.360Z,8.60
2023-03-13T23:27:29.647Z,12.17
2023-03-13T23:29:57.948Z,13.90
2023-03-13T23:32:26.264Z,12.40
2023-03-13T23:34:54.889Z,10.10
2023-03-13T23:37:23.156Z,11.80
2023-03-13T23:39:53.152Z,12.43
2023-03-13T23:42:21.420Z,10.97
2023-03-13T23:44:49.669Z,14.73
2023-03-13T23:47:17.976Z,10.40
2023-03-13T23:49:46.255Z,12.67
2023-03-13T23:52:14.872Z,14.47
2023-03-13T23:54:43.155Z,14.00
2023-03-13T23:57:12.812Z,15.70
2023-03-13T23:59:41.091Z,13.30
